createdAt,value
2023-03-29T00:01:00.700Z,4.10
2023-03-29T00:03:30.604Z,3.92
2023-03-29T00:06:05.827Z,4.03
2023-03-29T00:08:34.492Z,4.38
2023-03-29T00:11:03.079Z,4.45
2023-03-29T00:13:31.586Z,5.55
2023-03-29T00:15:59.722Z,5.30
2023-03-29T00:18:27.829Z,4.88
2023-03-29T00:21:00.676Z,5.28
2023-03-29T00:23:31.476Z,5.60
2023-03-29T00:25:59.650Z,4.95
2023-03-29T00:28:27.928Z,5.03
2023-03-29T00:31:06.344Z,5.32
2023-03-29T00:33:34.942Z,5.60
2023-03-29T00:36:04.520Z,5.78
2023-03-29T00:38:33.589Z,5.13
2023-03-29T00:41:06.939Z,5.43
2023-03-29T00:44:00.912Z,5.43
2023-03-29T00:46:31.424Z,6.00
2023-03-29T00:49:07.069Z,6.15
2023-03-29T00:51:41.405Z,6.63
2023-03-29T00:54:14.912Z,6.07
2023-03-29T00:56:47.493Z,5.75
2023-03-29T00:59:21.714Z,6.82
2023-03-29T01:01:58.597Z,6.25
2023-03-29T01:04:40.713Z,6.85
2023-03-29T01:07:21.768Z,6.38
2023-03-29T01:10:09.158Z,5.95
2023-03-29T01:12:43.002Z,6.80
2023-03-29T01:15:18.728Z,7.25
2023-03-29T01:17:50.754Z,6.45
2023-03-29T01:20:51.141Z,5.93
2023-03-29T01:23:58.293Z,6.40
2023-03-29T01:26:57.262Z,5.82
2023-03-29T01:29:31.756Z,6.60
2023-03-29T01:32:35.060Z,6.70
2023-03-29T01:35:10.547Z,5.95
2023-03-29T01:37:51.367Z,6.63
2023-03-29T01:40:19.696Z,6.32
2023-03-29T01:43:00.729Z,6.78
2023-03-29T01:45:34.278Z,5.70
2023-03-29T01:48:06.239Z,6.32
2023-03-29T01:50:34.410Z,5.75
2023-03-29T01:53:17.659Z,6.32
2023-03-29T01:55:51.671Z,5.75
2023-03-29T01:58:26.472Z,5.80
2023-03-29T02:00:55.497Z,5.72
2023-03-29T02:03:28.228Z,6.15
2023-03-29T02:05:59.277Z,6.13
2023-03-29T02:08:30.989Z,6.10
2023-03-29T02:10:59.509Z,5.65
2023-03-29T02:13:27.713Z,6.28
2023-03-29T02:15:56.587Z,6.80
2023-03-29T02:18:25.999Z,6.80
2023-03-29T02:20:59.004Z,7.18
2023-03-29T02:26:03.969Z,7.40
2023-03-29T02:28:33.380Z,7.22
2023-03-29T02:31:04.723Z,6.72
2023-03-29T02:33:42.196Z,7.15
2023-03-29T02:36:17.700Z,6.80
2023-03-29T02:38:46.409Z,6.63
2023-03-29T02:41:16.869Z,6.72
2023-03-29T02:43:47.698Z,5.78
2023-03-29T02:46:18.489Z,5.13
2023-03-29T02:48:48.618Z,5.65
2023-03-29T02:51:27.550Z,5.20
2023-03-29T02:54:12.959Z,5.15
2023-03-29T02:56:50.078Z,5.50
2023-03-29T02:59:19.912Z,5.10
2023-03-29T03:01:48.422Z,5.70
2023-03-29T03:04:18.530Z,4.95
2023-03-29T03:06:47.580Z,4.57
2023-03-29T03:09:16.811Z,4.38
2023-03-29T03:11:47.603Z,4.70
2023-03-29T03:14:16.798Z,5.22
2023-03-29T03:16:45.959Z,4.72
2023-03-29T03:19:14.798Z,5.03
2023-03-29T03:21:45.601Z,5.13
2023-03-29T03:24:13.969Z,6.10
2023-03-29T03:26:42.061Z,5.50
2023-03-29T03:29:11.308Z,6.57
2023-03-29T03:32:02.520Z,6.25
2023-03-29T03:34:50.986Z,6.93
2023-03-29T03:37:20.010Z,6.30
2023-03-29T03:39:48.289Z,6.75
2023-03-29T03:42:16.849Z,6.68
2023-03-29T03:44:46.692Z,7.55
2023-03-29T03:47:33.953Z,7.00
2023-03-29T03:50:15.980Z,6.63
2023-03-29T03:52:44.060Z,7.55
2023-03-29T03:55:12.310Z,6.32
2023-03-29T03:57:43.292Z,6.90
2023-03-29T04:00:22.965Z,6.13
2023-03-29T04:03:06.236Z,5.40
2023-03-29T04:05:42.294Z,5.90
2023-03-29T04:08:12.544Z,5.88
2023-03-29T04:11:10.043Z,5.50
2023-03-29T04:13:40.776Z,5.47
2023-03-29T04:16:38.289Z,4.70
2023-03-29T04:19:26.357Z,5.30
2023-03-29T04:21:55.463Z,5.43
2023-03-29T04:24:25.040Z,4.88
2023-03-29T04:27:13.163Z,4.68
2023-03-29T04:29:41.447Z,5.22
2023-03-29T04:32:19.401Z,4.68
2023-03-29T04:35:16.814Z,5.00
2023-03-29T04:37:45.667Z,5.25
2023-03-29T04:40:19.368Z,5.05
2023-03-29T04:42:57.800Z,5.40
2023-03-29T04:45:44.805Z,5.60
2023-03-29T04:48:24.599Z,6.32
2023-03-29T04:50:54.468Z,5.78
2023-03-29T04:53:22.844Z,6.25
2023-03-29T04:55:53.256Z,5.63
2023-03-29T04:58:36.276Z,5.40
2023-03-29T05:01:05.815Z,6.05
2023-03-29T05:03:40.480Z,5.80
2023-03-29T05:06:17.230Z,6.05
2023-03-29T05:08:48.564Z,6.13
2023-03-29T05:11:46.022Z,6.15
2023-03-29T05:14:15.286Z,6.68
2023-03-29T05:16:45.544Z,5.80
2023-03-29T05:19:13.889Z,5.72
2023-03-29T05:21:46.977Z,6.15
2023-03-29T05:24:19.212Z,6.05
2023-03-29T05:26:53.517Z,6.82
2023-03-29T05:29:23.488Z,6.10
2023-03-29T05:32:00.098Z,7.30
2023-03-29T05:34:29.772Z,7.03
2023-03-29T05:37:01.516Z,6.38
2023-03-29T05:39:37.525Z,6.15
2023-03-29T05:42:06.510Z,6.60
2023-03-29T05:44:46.331Z,6.63
2023-03-29T05:47:20.058Z,6.75
2023-03-29T05:49:48.206Z,7.70
2023-03-29T05:52:22.249Z,7.65
2023-03-29T05:54:50.698Z,6.93
2023-03-29T05:57:19.144Z,7.80
2023-03-29T05:59:47.980Z,7.85
2023-03-29T06:02:16.978Z,7.43
2023-03-29T06:04:50.074Z,6.97
2023-03-29T06:07:24.497Z,7.30
2023-03-29T06:10:31.381Z,6.40
2023-03-29T06:13:13.935Z,6.07
2023-03-29T06:15:42.206Z,6.10
2023-03-29T06:18:11.445Z,5.95
2023-03-29T06:20:40.421Z,6.53
2023-03-29T06:23:14.008Z,6.95
2023-03-29T06:25:44.541Z,6.75
2023-03-29T06:28:14.587Z,7.25
2023-03-29T06:30:43.706Z,7.57
2023-03-29T06:33:12.537Z,7.65
2023-03-29T06:35:50.834Z,7.90
2023-03-29T06:41:21.791Z,7.38
2023-03-29T06:44:10.344Z,7.32
2023-03-29T06:46:49.919Z,7.15
2023-03-29T06:49:18.175Z,6.90
2023-03-29T06:52:04.260Z,7.18
2023-03-29T06:54:33.902Z,6.80
2023-03-29T06:57:05.429Z,7.45
2023-03-29T06:59:35.649Z,6.82
2023-03-29T07:02:36.534Z,7.20
2023-03-29T07:05:12.176Z,7.25
2023-03-29T07:08:05.318Z,7.20
2023-03-29T07:10:59.952Z,6.80
2023-03-29T07:13:34.393Z,7.70
2023-03-29T07:16:07.862Z,7.07
2023-03-29T07:18:54.910Z,6.80
2023-03-29T07:21:55.275Z,6.60
2023-03-29T07:24:32.596Z,6.88
2023-03-29T07:27:04.580Z,7.40
2023-03-29T07:32:02.415Z,7.70
2023-03-29T07:34:48.021Z,7.35
2023-03-29T07:37:26.749Z,6.82
2023-03-29T07:39:56.791Z,7.45
2023-03-29T07:42:44.085Z,7.45
2023-03-29T07:48:10.882Z,8.35
2023-03-29T07:51:02.752Z,7.95
2023-03-29T07:53:38.733Z,7.28
2023-03-29T07:56:13.532Z,7.93
2023-03-29T07:59:04.252Z,8.13
2023-03-29T08:01:32.408Z,8.18
2023-03-29T08:04:00.810Z,8.50
2023-03-29T08:06:52.433Z,8.07
2023-03-29T08:09:22.421Z,7.88
2023-03-29T08:11:50.775Z,8.23
2023-03-29T08:14:26.032Z,8.23
2023-03-29T08:17:00.954Z,7.82
2023-03-29T08:19:30.643Z,8.48
2023-03-29T08:22:18.224Z,8.63
2023-03-29T08:25:08.279Z,7.78
2023-03-29T08:27:44.842Z,7.78
2023-03-29T08:30:15.871Z,8.93
2023-03-29T08:32:45.276Z,8.60
2023-03-29T08:35:14.508Z,7.63
2023-03-29T08:38:05.736Z,8.38
2023-03-29T08:40:35.342Z,8.35
2023-03-29T08:43:39.475Z,8.05
2023-03-29T08:46:26.303Z,8.07
2023-03-29T08:49:05.506Z,9.10
2023-03-29T08:51:39.558Z,8.40
2023-03-29T08:54:12.613Z,8.85
2023-03-29T08:57:31.653Z,9.25
2023-03-29T09:00:10.568Z,8.05
2023-03-29T09:02:43.617Z,9.02
2023-03-29T09:05:29.644Z,8.73
2023-03-29T09:08:17.455Z,8.48
2023-03-29T09:11:24.517Z,8.75
2023-03-29T09:14:12.220Z,10.10
2023-03-29T09:16:57.453Z,8.82
2023-03-29T09:19:29.980Z,8.77
2023-03-29T09:22:16.062Z,9.07
2023-03-29T09:24:54.158Z,8.70
2023-03-29T09:27:27.635Z,8.13
2023-03-29T09:30:26.296Z,8.80
2023-03-29T09:33:31.641Z,8.75
2023-03-29T09:36:20.587Z,8.88
2023-03-29T09:38:54.377Z,8.93
2023-03-29T09:41:39.232Z,8.57
2023-03-29T09:44:23.917Z,8.30
2023-03-29T09:47:20.692Z,7.78
2023-03-29T09:49:57.544Z,8.23
2023-03-29T09:52:26.280Z,7.68
2023-03-29T09:55:06.717Z,8.18
2023-03-29T09:57:51.536Z,7.53
2023-03-29T10:00:23.409Z,7.35
2023-03-29T10:02:53.869Z,8.30
2023-03-29T10:05:32.609Z,8.30
2023-03-29T10:08:11.994Z,8.63
2023-03-29T10:10:41.539Z,8.45
2023-03-29T10:13:18.984Z,9.20
2023-03-29T10:15:57.910Z,7.75
2023-03-29T10:18:31.595Z,8.45
2023-03-29T10:21:03.728Z,8.05
2023-03-29T10:23:37.816Z,8.25
2023-03-29T10:26:15.015Z,8.05
2023-03-29T10:28:43.599Z,7.13
2023-03-29T10:31:20.170Z,7.50
2023-03-29T10:33:57.214Z,7.68
2023-03-29T10:36:27.950Z,7.10
2023-03-29T10:39:05.132Z,6.63
2023-03-29T10:41:35.713Z,7.25
2023-03-29T10:44:05.557Z,6.65
2023-03-29T10:46:42.935Z,6.43
2023-03-29T10:49:20.758Z,5.50
2023-03-29T10:51:50.831Z,6.63
2023-03-29T10:54:22.341Z,6.22
2023-03-29T10:56:58.008Z,7.85
2023-03-29T10:59:38.340Z,5.70
2023-03-29T11:02:34.507Z,5.63
2023-03-29T11:05:18.538Z,7.67
2023-03-29T11:08:18.169Z,6.47
2023-03-29T11:10:52.793Z,8.45
2023-03-29T11:13:38.145Z,7.05
2023-03-29T11:16:12.234Z,6.55
2023-03-29T11:18:52.610Z,6.05
2023-03-29T11:21:36.905Z,6.40
2023-03-29T11:24:29.626Z,6.80
2023-03-29T11:27:12.299Z,6.97
2023-03-29T11:30:08.398Z,7.13
2023-03-29T11:32:37.340Z,6.85
2023-03-29T11:35:22.267Z,6.28
2023-03-29T11:37:50.336Z,6.47
2023-03-29T11:40:39.473Z,6.88
2023-03-29T11:43:20.435Z,6.43
2023-03-29T11:46:00.231Z,6.28
2023-03-29T11:48:40.887Z,6.30
2023-03-29T11:51:27.049Z,6.22
2023-03-29T11:54:05.687Z,4.90
2023-03-29T11:56:47.221Z,5.63
2023-03-29T11:59:25.317Z,5.25
2023-03-29T12:01:59.857Z,5.50
2023-03-29T12:04:36.696Z,5.35
2023-03-29T12:07:10.803Z,4.85
2023-03-29T12:09:46.761Z,4.35
2023-03-29T12:12:34.277Z,4.72
2023-03-29T12:15:07.247Z,5.32
2023-03-29T12:17:59.121Z,4.95
2023-03-29T12:20:36.372Z,5.00
2023-03-29T12:23:08.109Z,5.00
2023-03-29T12:26:05.904Z,4.32
2023-03-29T12:29:01.111Z,4.18
2023-03-29T12:31:49.195Z,4.25
2023-03-29T12:34:41.649Z,4.13
2023-03-29T12:38:08.332Z,3.80
2023-03-29T12:41:00.851Z,3.47
2023-03-29T12:43:52.492Z,3.60
2023-03-29T12:46:35.486Z,4.20
2023-03-29T12:49:26.890Z,3.70
2023-03-29T12:51:57.467Z,3.95
2023-03-29T12:54:30.435Z,3.75
2023-03-29T12:57:20.256Z,3.03
2023-03-29T12:59:49.617Z,3.63
2023-03-29T13:02:18.118Z,3.78
2023-03-29T13:04:52.891Z,3.50
2023-03-29T13:07:24.247Z,3.55
2023-03-29T13:09:58.106Z,3.70
2023-03-29T13:12:46.513Z,3.45
2023-03-29T13:15:17.713Z,3.25
2023-03-29T13:17:46.414Z,3.65
2023-03-29T13:20:40.310Z,3.80
2023-03-29T13:26:21.510Z,3.95
2023-03-29T13:29:03.679Z,4.20
2023-03-29T13:31:54.909Z,4.20
2023-03-29T13:34:31.836Z,3.90
2023-03-29T13:37:28.540Z,3.85
2023-03-29T13:39:56.999Z,3.78
2023-03-29T13:42:32.937Z,3.85
2023-03-29T13:45:26.382Z,4.07
2023-03-29T13:48:22.086Z,4.43
2023-03-29T13:50:56.493Z,4.18
2023-03-29T13:53:43.403Z,4.22
2023-03-29T13:56:18.821Z,4.05
2023-03-29T13:58:52.230Z,4.30
2023-03-29T14:04:02.741Z,4.63
2023-03-29T14:06:34.940Z,3.75
2023-03-29T14:09:08.783Z,4.00
2023-03-29T14:11:36.996Z,3.97
2023-03-29T14:14:08.127Z,4.40
2023-03-29T14:16:39.119Z,4.28
2023-03-29T14:19:18.249Z,4.47
2023-03-29T14:21:49.361Z,5.07
2023-03-29T14:24:22.274Z,4.75
2023-03-29T14:26:52.551Z,4.00
2023-03-29T14:29:21.903Z,4.53
2023-03-29T14:31:53.576Z,5.10
2023-03-29T14:34:23.791Z,4.78
2023-03-29T14:36:54.218Z,4.07
2023-03-29T14:39:23.716Z,5.45
2023-03-29T14:41:58.108Z,5.32
2023-03-29T14:44:37.413Z,4.70
2023-03-29T14:47:05.863Z,5.10
2023-03-29T14:49:34.738Z,4.13
2023-03-29T14:52:03.403Z,4.75
2023-03-29T14:54:34.353Z,4.95
2023-03-29T14:57:09.742Z,4.70
2023-03-29T14:59:42.829Z,4.15
2023-03-29T15:02:34.049Z,3.72
2023-03-29T15:05:05.341Z,4.90
2023-03-29T15:07:36.491Z,4.30
2023-03-29T15:10:06.636Z,3.90
2023-03-29T15:12:43.323Z,4.18
2023-03-29T15:15:13.716Z,3.70
2023-03-29T15:17:51.599Z,4.20
2023-03-29T15:20:27.187Z,4.75
2023-03-29T15:23:17.855Z,4.47
2023-03-29T15:25:57.138Z,4.28
2023-03-29T15:28:32.693Z,4.13
2023-03-29T15:31:10.292Z,5.30
2023-03-29T15:33:41.798Z,4.03
2023-03-29T15:36:15.249Z,5.13
2023-03-29T15:38:45.344Z,4.70
2023-03-29T15:41:14.791Z,4.53
2023-03-29T15:43:43.528Z,4.10
2023-03-29T15:46:14.034Z,3.97
2023-03-29T15:48:42.740Z,4.15
2023-03-29T15:51:14.478Z,4.45
2023-03-29T15:53:43.196Z,4.13
2023-03-29T15:56:17.459Z,3.85
2023-03-29T15:58:46.920Z,3.67
2023-03-29T16:01:33.535Z,3.78
2023-03-29T16:04:07.512Z,3.92
2023-03-29T16:06:37.966Z,3.95
2023-03-29T16:09:07.180Z,3.97
2023-03-29T16:11:36.058Z,3.53
2023-03-29T16:14:18.997Z,4.38
2023-03-29T16:16:47.327Z,4.30
2023-03-29T16:19:15.715Z,4.63
2023-03-29T16:21:44.937Z,4.25
2023-03-29T16:24:20.178Z,4.82
2023-03-29T16:26:52.734Z,3.92
2023-03-29T16:29:25.621Z,3.97
2023-03-29T16:31:54.448Z,4.38
2023-03-29T16:34:23.122Z,4.30
2023-03-29T16:36:54.260Z,4.35
2023-03-29T16:39:22.459Z,4.82
2023-03-29T16:41:50.865Z,4.78
2023-03-29T16:44:23.953Z,5.03
2023-03-29T16:46:54.597Z,4.88
2023-03-29T16:49:24.847Z,4.22
2023-03-29T16:51:53.485Z,4.80
2023-03-29T16:54:21.904Z,4.63
2023-03-29T16:56:50.697Z,5.07
2023-03-29T16:59:19.247Z,5.13
2023-03-29T17:01:49.978Z,4.90
2023-03-29T17:04:18.406Z,4.03
2023-03-29T17:06:47.686Z,5.13
2023-03-29T17:09:18.251Z,4.32
2023-03-29T17:11:46.536Z,3.90
2023-03-29T17:14:16.121Z,4.70
2023-03-29T17:16:44.259Z,4.90
2023-03-29T17:19:15.268Z,4.47
2023-03-29T17:21:43.500Z,5.80
2023-03-29T17:24:12.218Z,4.78
2023-03-29T17:26:40.361Z,4.45
2023-03-29T17:29:08.550Z,4.60
2023-03-29T17:31:38.043Z,5.32
2023-03-29T17:34:06.348Z,4.35
2023-03-29T17:36:37.400Z,4.40
2023-03-29T17:39:05.530Z,4.53
2023-03-29T17:41:33.660Z,4.88
2023-03-29T17:44:02.474Z,6.47
2023-03-29T17:46:31.159Z,7.03
2023-03-29T17:49:00.374Z,7.55
2023-03-29T17:51:28.495Z,7.45
2023-03-29T17:53:57.189Z,6.95
2023-03-29T17:56:26.591Z,7.05
2023-03-29T17:58:55.017Z,6.53
2023-03-29T18:01:23.267Z,7.97
2023-03-29T18:03:51.723Z,8.15
2023-03-29T18:06:20.936Z,6.28
2023-03-29T18:08:49.246Z,6.22
2023-03-29T18:11:22.509Z,7.47
2023-03-29T18:13:52.796Z,5.30
2023-03-29T18:16:21.914Z,5.07
2023-03-29T18:18:53.065Z,5.75
2023-03-29T18:21:22.027Z,5.80
2023-03-29T18:23:52.840Z,5.95
2023-03-29T18:26:22.849Z,6.30
2023-03-29T18:28:51.293Z,6.40
2023-03-29T18:31:20.049Z,12.23
2023-03-29T18:33:48.661Z,14.82
2023-03-29T18:36:16.961Z,14.23
2023-03-29T18:38:45.835Z,10.65
2023-03-29T18:41:14.726Z,8.48
2023-03-29T18:43:44.234Z,8.18
2023-03-29T18:46:14.041Z,7.40
2023-03-29T18:48:42.395Z,12.02
2023-03-29T18:51:11.576Z,8.95
2023-03-29T18:53:42.010Z,9.13
2023-03-29T18:56:11.176Z,8.35
2023-03-29T18:58:39.435Z,7.20
2023-03-29T19:01:09.701Z,8.73
2023-03-29T19:03:38.235Z,7.18
2023-03-29T19:06:07.968Z,6.57
2023-03-29T19:08:39.140Z,6.07
2023-03-29T19:11:14.248Z,6.35
2023-03-29T19:13:42.697Z,5.70
2023-03-29T19:16:12.287Z,5.70
2023-03-29T19:18:43.820Z,6.25
2023-03-29T19:21:12.159Z,10.45
2023-03-29T19:23:41.043Z,18.60
2023-03-29T19:26:11.632Z,19.00
2023-03-29T19:28:42.630Z,13.10
2023-03-29T19:31:12.824Z,18.98
2023-03-29T19:33:41.307Z,8.25
2023-03-29T19:36:09.711Z,8.02
2023-03-29T19:38:39.585Z,6.97
2023-03-29T19:41:08.433Z,6.28
2023-03-29T19:43:37.176Z,6.03
2023-03-29T19:46:10.531Z,5.97
2023-03-29T19:48:42.478Z,6.60
2023-03-29T19:51:13.576Z,6.03
2023-03-29T19:53:43.505Z,5.97
2023-03-29T19:56:15.657Z,6.50
2023-03-29T19:58:50.649Z,6.80
2023-03-29T20:01:27.257Z,6.53
2023-03-29T20:04:07.141Z,6.82
2023-03-29T20:06:37.152Z,6.95
2023-03-29T20:09:08.812Z,6.20
2023-03-29T20:11:40.746Z,6.75
2023-03-29T20:14:12.382Z,6.53
2023-03-29T20:16:43.489Z,5.90
2023-03-29T20:19:14.844Z,6.65
2023-03-29T20:21:45.002Z,7.00
2023-03-29T20:24:13.929Z,6.70
2023-03-29T20:26:43.648Z,6.72
2023-03-29T20:29:15.336Z,7.18
2023-03-29T20:31:44.104Z,6.55
2023-03-29T20:34:12.893Z,7.80
2023-03-29T20:36:41.166Z,7.63
2023-03-29T20:39:09.549Z,8.88
2023-03-29T20:41:38.404Z,8.60
2023-03-29T20:44:06.756Z,7.57
2023-03-29T20:46:35.061Z,7.60
2023-03-29T20:49:05.465Z,8.48
2023-03-29T20:51:35.889Z,7.35
2023-03-29T20:54:09.543Z,7.80
2023-03-29T20:56:42.249Z,8.15
2023-03-29T20:59:11.096Z,7.22
2023-03-29T21:01:41.015Z,8.90
2023-03-29T21:04:10.864Z,6.53
2023-03-29T21:06:39.634Z,8.25
2023-03-29T21:09:07.998Z,7.90
2023-03-29T21:11:36.128Z,8.30
2023-03-29T21:14:04.355Z,8.15
2023-03-29T21:16:32.450Z,8.10
2023-03-29T21:19:00.844Z,7.30
2023-03-29T21:21:29.705Z,7.25
2023-03-29T21:23:57.840Z,8.82
2023-03-29T21:26:26.382Z,10.25
2023-03-29T21:28:54.600Z,8.02
2023-03-29T21:31:22.771Z,7.95
2023-03-29T21:33:50.978Z,8.13
2023-03-29T21:36:19.642Z,8.27
2023-03-29T21:38:47.797Z,7.30
2023-03-29T21:41:15.926Z,8.10
2023-03-29T21:43:44.521Z,7.63
2023-03-29T21:46:12.872Z,8.20
2023-03-29T21:48:44.270Z,8.32
2023-03-29T21:51:12.397Z,8.23
2023-03-29T21:53:40.697Z,9.68
2023-03-29T21:56:09.442Z,8.50
2023-03-29T21:58:37.802Z,7.75
2023-03-29T22:01:07.420Z,7.68
2023-03-29T22:03:36.700Z,7.97
2023-03-29T22:06:10.044Z,9.00
2023-03-29T22:11:14.381Z,8.13
2023-03-29T22:13:44.180Z,9.05
2023-03-29T22:16:15.332Z,7.70
2023-03-29T22:18:44.407Z,9.20
2023-03-29T22:21:30.556Z,7.47
2023-03-29T22:24:01.023Z,8.00
2023-03-29T22:26:32.183Z,7.90
2023-03-29T22:29:01.233Z,8.75
2023-03-29T22:31:30.421Z,7.90
2023-03-29T22:33:58.804Z,8.48
2023-03-29T22:36:29.899Z,7.93
2023-03-29T22:38:58.611Z,7.93
2023-03-29T22:41:27.968Z,8.63
2023-03-29T22:44:00.024Z,8.25
2023-03-29T22:46:28.290Z,7.20
2023-03-29T22:48:56.527Z,8.18
2023-03-29T22:51:24.675Z,7.43
2023-03-29T22:53:53.002Z,7.38
2023-03-29T22:56:21.867Z,7.65
2023-03-29T22:58:50.318Z,8.45
2023-03-29T23:01:18.404Z,7.55
2023-03-29T23:03:46.514Z,7.57
2023-03-29T23:06:14.648Z,8.23
2023-03-29T23:08:42.911Z,7.57
2023-03-29T23:11:11.577Z,7.75
2023-03-29T23:13:39.750Z,7.88
2023-03-29T23:16:08.253Z,8.10
2023-03-29T23:18:37.601Z,8.02
2023-03-29T23:21:07.506Z,7.57
2023-03-29T23:23:37.918Z,8.23
2023-03-29T23:26:09.144Z,8.25
2023-03-29T23:28:37.843Z,7.45
2023-03-29T23:31:11.831Z,8.10
2023-03-29T23:33:42.777Z,8.05
2023-03-29T23:36:18.977Z,7.85
2023-03-29T23:38:47.884Z,6.63
2023-03-29T23:41:17.735Z,7.97
2023-03-29T23:43:47.228Z,7.05
2023-03-29T23:46:17.536Z,7.25
2023-03-29T23:48:47.294Z,8.30
2023-03-29T23:51:18.622Z,8.98
2023-03-29T23:53:48.005Z,8.27
2023-03-29T23:56:16.354Z,8.38
2023-03-29T23:58:44.802Z,8.30
